ěÝzenÝ letovÚho provozu ╚eskÚ republiky
Letiste: LKNA Aktualizace: 25.01.2022 10:59:28  UTC
 METAR LKNA 25.01. 11:00 ...
METAR LKNA 251100Z 28006KT 7000 -DZ OVC007 01/M01 Q1030 NOSIG RMK GRN GRN=
 TAF LKNA 25.01. 05:00 AAA
TAF AMD LKNA 250500Z 2506/2606 28005KT 9999 OVC018      TEMPO 2506/2508 7000 BKN012 OVC018      BECMG 2508/2510 29008KT      PROB30 TEMPO 2509/2603 3000 DZ BKN008 OVC014=